• Join FlightAware (Why Join?)
  • Login
  • US Flag 
06:22PM EDT


 

Airport Tracker/Info


-or-


 

Live Flight TrackerFlight Track Log ✈ BAW133 ✈ 05-May-2013 ✈ EGLL / LHR - OEJN / JED

Flight Track Log - Related Links

Times and Time Zones

All times are in EDT time to prevent confusion due to time zone crossing. See the BAW133 flight status page for this flight to view local times or setup timezone preferences in your user account.

Time Position Orientation Groundspeed Altitude Reporting Facility
EDT Latitude Longitude Course Direction KTS MPH feet Rate Location/Type
05:54PM 51.4642 -0.5154 148° Southeast 174 200 1,400  Level FlightAware ADS-B
05:54PM 51.4635 -0.5219 260° West 177 204 1,600 2,220 Climbing FlightAware ADS-B
05:54PM 51.4624 -0.5269 250° West 179 206 1,700 1,680 Climbing FlightAware ADS-B
05:54PM 51.4608 -0.5304 234° Southwest 181 208 1,800 1,500 Climbing FlightAware ADS-B
05:54PM 51.4584 -0.5357 234° Southwest 185 213 1,900 1,500 Climbing FlightAware ADS-B
05:54PM 51.4560 -0.5384 215° Southwest 189 217 2,000 1,680 Climbing FlightAware ADS-B
05:54PM 51.4535 -0.5406 208° Southwest 191 220 2,100 2,520 Climbing FlightAware ADS-B
05:54PM 51.4498 -0.5430 202° Southwest 193 222 2,300 2,220 Climbing FlightAware ADS-B
05:54PM 51.4462 -0.5437 188° South 195 224 2,400 2,220 Climbing FlightAware ADS-B
05:54PM 51.4426 -0.5440 182° South 195 224 2,600 2,220 Climbing FlightAware ADS-B
05:54PM 51.4392 -0.5435 175° South 195 224 2,700 1,680 Climbing FlightAware ADS-B
05:54PM 51.4365 -0.5428 170° South 197 227 2,800 1,980 Climbing FlightAware ADS-B
05:54PM 51.4339 -0.5417 165° South 197 227 2,900 3,000 Climbing FlightAware ADS-B
05:55PM 51.4311 -0.5403 163° South 198 228 3,100 2,220 Climbing FlightAware ADS-B
05:55PM 51.4274 -0.5372 152° Southeast 199 229 3,200 1,500 Climbing FlightAware ADS-B
05:55PM 51.4248 -0.5347 149° Southeast 200 230 3,300 3,000 Climbing FlightAware ADS-B
05:55PM 51.4225 -0.5322 145° Southeast 201 231 3,500 3,000 Climbing FlightAware ADS-B
05:55PM 51.4203 -0.5292 140° Southeast 203 234 3,600 1,500 Climbing FlightAware ADS-B
05:55PM 51.4171 -0.5239 134° Southeast 205 236 3,700 1,260 Climbing FlightAware ADS-B
05:55PM 51.4072 -0.5077 135° Southeast 223 257 4,000 1,620 Climbing FlightAware ADS-B
05:55PM 51.4012 -0.4982 135° Southeast 230 265 4,300 2,220 Climbing FlightAware ADS-B
05:55PM 51.3881 -0.4791 138° Southeast 245 282 4,900 2,220 Climbing FlightAware ADS-B
05:56PM 51.3747 -0.4586 136° Southeast 259 298 5,500 2,460 Climbing FlightAware ADS-B
05:56PM 51.3609 -0.4366 135° Southeast 269 310 6,200 2,880 Climbing FlightAware ADS-B
05:56PM 51.3467 -0.4155 137° Southeast 275 316 7,000 3,000 Climbing FlightAware ADS-B
05:57PM 51.3316 -0.3911 135° Southeast 279 321 7,800 3,180 Climbing FlightAware ADS-B
05:57PM 51.3204 -0.3751 138° Southeast 281 323 8,500 3,360 Climbing FlightAware ADS-B
05:57PM 51.3169 -0.3692 133° Southeast 283 326 8,700 2,220 Climbing FlightAware ADS-B
05:57PM 51.3135 -0.3611 124° Southeast 286 329 8,800 2,220 Climbing FlightAware ADS-B
05:57PM 51.3113 -0.3558 123° Southeast 287 330 9,000 2,520 Climbing FlightAware ADS-B
05:57PM 51.3094 -0.3500 118° Southeast 290 334 9,100 1,980 Climbing FlightAware ADS-B
05:57PM 51.3079 -0.3439 111° Southeast 290 334 9,200 3,000 Climbing FlightAware ADS-B
05:57PM 51.3069 -0.3375 104° East 292 336 9,400 3,000 Climbing FlightAware ADS-B
05:57PM 51.3062 -0.3312 100° East 293 337 9,500 3,000 Climbing FlightAware ADS-B
05:57PM 51.3060 -0.3157 91° East 294 338 9,900 -720 Climbing FlightAware ADS-B
05:58PM 51.3061 -0.2705 91° East 300 345 9,200 2,400 Descending FlightAware UK
05:58PM 51.3054 -0.2493 91° East 313 360 11,100 1,560 Climbing FlightAware ADS-B
05:58PM 51.3043 -0.1996 91° East 330 380 10,000 1,500 Descending FlightAware UK
05:58PM 51.3040 -0.1914 91° East 338 389 11,700 1,500 Climbing FlightAware ADS-B
05:58PM 51.3029 -0.1381 91° East 354 407 10,600 1,560 Descending FlightAware UK
05:59PM 51.3023 -0.1132 91° East 366 421 12,500 2,400 Climbing FlightAware ADS-B
05:59PM 51.3014 -0.0564 91° East 376 433 11,800 2,700 Descending FlightAware UK
05:59PM 51.3010 -0.0279 91° East 376 433 13,900 2,160 Climbing FlightAware ADS-B
05:59PM 51.3002 0.0277 91° East 396 456 12,900 1,980 Descending FlightAware UK
06:00PM 51.2999 0.0484 91° East 386 444 14,800 2,220 Climbing FlightAware ADS-B
06:00PM 51.2993 0.0970 91° East 402 463 13,800 2,160 Descending FlightAware UK
06:00PM 51.2991 0.1347 91° East 392 451 15,900 2,400 Climbing FlightAware ADS-B
06:00PM 51.2987 0.1838 91° East 406 467 15,000 1,920 Descending FlightAware UK
06:01PM 51.2987 0.2253 91° East 400 460 16,900 1,380 Climbing FlightAware ADS-B
06:01PM 51.2985 0.2730 91° East 416 479 15,700 2,160 Descending FlightAware UK
06:01PM 51.2985 0.3144 91° East 403 464 18,000 2,580 Climbing FlightAware ADS-B
06:01PM 51.2983 0.3626 91° East 422 486 17,000 2,400 Descending FlightAware UK
06:02PM 51.2981 0.4040 91° East 407 468 19,200 2,280 Climbing FlightAware ADS-B
06:02PM 51.2980 0.4531 91° East 430 495 18,200 2,280 Descending FlightAware UK
06:02PM 51.2979 0.4974 91° East 409 471 20,400 2,520 Climbing FlightAware ADS-B
06:02PM 51.2975 0.5611 91° East 434 499 19,700 2,280 Descending FlightAware UK
06:03PM 51.2969 0.5912 91° East 412 474 21,600 1,920 Climbing FlightAware ADS-B
06:03PM 51.2963 0.6529 91° East 438 504 20,700 2,040 Descending FlightAware UK
06:03PM 51.2959 0.6891 91° East 418 481 22,700 2,160 Climbing FlightAware ADS-B
06:03PM 51.2955 0.7464 91° East 450 518 21,800 2,100 Descending FlightAware UK
06:04PM 51.2957 0.7849 91° East 420 483 23,800 2,160 Climbing FlightAware ADS-B
06:04PM 51.2955 0.8394 91° East 454 522 22,900 -540 Descending FlightAware UK
06:04PM 51.2951 0.8955 91° East 458 527 23,500 6,600 Climbing FlightAware UK
06:04PM 51.2950 0.8910 91° East 424 488 25,000 15,420 Climbing FlightAware
06:04PM 51.2947 0.9157 91° East 423 487 25,300 -1,860 Climbing FlightAware ADS-B
06:05PM 51.2907 0.9705 91° East 458 527 24,300 1,800 Descending FlightAware UK
06:05PM 51.2887 0.9972 91° East 429 494 26,100 6,960 Climbing FlightAware ADS-B
06:05PM 51.2866 1.0254 97° East 430 495 26,400 -1,800 Climbing FlightAware ADS-B
06:05PM 51.2824 1.0835 97° East 466 536 25,300 1,680 Descending FlightAware UK
06:06PM 51.2789 1.1271 97° East 436 502 27,300 5,700 Climbing FlightAware ADS-B
06:06PM 51.2751 1.1588 101° East 431 496 27,600 1,500 Climbing FlightAware ADS-B
06:06PM 51.2739 1.1647 108° East 438 504 27,600 1,500 Level FlightAware ADS-B
06:06PM 51.2723 1.1711 112° Southeast 438 504 27,700 2,220 Climbing FlightAware ADS-B
06:06PM 51.2684 1.1893 109° East 439 505 27,900 -1,200 Climbing FlightAware ADS-B
06:06PM 51.2525 1.2506 109° East 466 536 27,200 2,400 Descending FlightAware UK
06:06PM 51.2477 1.2699 109° East 435 501 29,000 12,000 Climbing FlightAware ADS-B
06:06PM 51.2454 1.2787 113° Southeast 434 499 29,200 -1,620 Climbing FlightAware ADS-B
06:07PM 51.2309 1.3401 113° Southeast 464 534 28,400 -180 Descending FlightAware UK
06:07PM 51.2185 1.3935 110° East 464 534 29,100 7,200 Climbing FlightAware UK
06:07PM 51.2172 1.3974 110° East 428 493 30,800 18,000 Climbing FlightAware ADS-B
06:07PM 51.2144 1.4092 111° Southeast 430 495 30,900 -2,220 Climbing FlightAware ADS-B
06:07PM 51.2010 1.4634 111° Southeast 458 527 30,000 2,040 Descending FlightAware UK
06:08PM 51.1922 1.4929 111° Southeast 426 490 31,900 9,480 Climbing FlightAware ADS-B
06:08PM 51.1914 1.4960 113° Southeast 426 490 31,900 -3,180 Level FlightAware ADS-B
06:08PM 51.1771 1.5500 113° Southeast 458 527 30,900 1,800 Descending FlightAware UK
06:08PM 51.1685 1.5824 113° Southeast 426 490 32,800 8,760 Climbing FlightAware ADS-B
06:08PM 51.1676 1.5852 117° Southeast 426 490 32,800 -3,720 Level FlightAware ADS-B
06:08PM 51.1539 1.6364 117° Southeast 458 527 31,700 1,560 Descending FlightAware UK
06:09PM 51.1439 1.6716 117° Southeast 425 489 33,600 1,560 Climbing FlightAware ADS-B
06:09PM 51.1308 1.7227 117° Southeast 460 529 32,500 1,860 Descending FlightAware UK
06:09PM 51.1293 1.7262 117° Southeast 424 488 34,200 7,380 Climbing FlightAware ADS-B
06:09PM 51.1176 1.7689 114° Southeast 422 486 34,600 1,320 Climbing FlightAware ADS-B
06:09PM 51.1052 1.8147 113° Southeast 423 487 34,900 -1,800 Climbing FlightAware ADS-B
06:10PM 51.0936 1.8605 113° Southeast 458 527 33,700 1,080 Descending FlightAware UK
06:10PM 51.0934 1.8605 113° Southeast 424 488 35,200 6,300 Climbing FlightAware ADS-B
06:10PM 51.0802 1.9092 113° Southeast 423 487 35,600 1,200 Climbing FlightAware ADS-B
06:10PM 51.0704 1.9464 113° Southeast 424 488 35,800 -2,220 Climbing FlightAware ADS-B
06:10PM 51.0572 1.9980 113° Southeast 456 525 34,500 960 Descending FlightAware UK
06:11PM 51.0469 2.0356 113° Southeast 426 490 36,300 4,260 Climbing FlightAware ADS-B
06:11PM 51.0357 2.0759 114° Southeast 426 490 36,500 660 Climbing FlightAware ADS-B
06:11PM 51.0201 2.1337 113° Southeast 430 495 36,700 780 Climbing FlightAware ADS-B
06:11PM 51.0119 2.1630 114° Southeast 432 497 36,900 -2,400 Climbing FlightAware ADS-B
06:12PM 50.9956 2.2238 114° Southeast 462 532 35,500 240 Descending FlightAware UK
06:12PM 50.9955 2.2241 114° Southeast 434 499 37,000 9,960 Climbing FlightAware ADS-B
06:12PM 50.9888 2.2473 115° Southeast 434 499 37,000 -3,780 Level FlightAware ADS-B
06:12PM 50.9762 2.2945 115° Southeast 462 532 35,500  Descending FlightAware UK
06:12PM 50.9714 2.3116 115° Southeast 434 499 37,000 6,420 Climbing FlightAware ADS-B
06:12PM 50.9647 2.3347 115° Southeast 434 499 37,000 -3,780 Level FlightAware ADS-B
06:13PM 50.9522 2.3823 115° Southeast 464 534 35,500  Descending FlightAware UK
06:13PM 50.9457 2.4047 115° Southeast 434 499 37,000  Climbing FlightAware ADS-B
06:13PM 50.9330 2.4524 115° Southeast 464 534 35,500  Descending FlightAware UK
06:13PM 50.9230 2.4864 115° Southeast 434 499 37,000 4,980 Climbing FlightAware ADS-B
06:13PM 50.9183 2.5038 113° Southeast 434 499 37,000 -3,780 Level FlightAware ADS-B
06:14PM 50.9040 2.5572 113° Southeast 464 534 35,500  Descending FlightAware UK
06:14PM 50.8986 2.5736 113° Southeast 434 499 37,000 7,500 Climbing FlightAware ADS-B
06:14PM 50.8940 2.5911 113° Southeast 434 499 37,000 -3,780 Level FlightAware ADS-B
06:14PM 50.8796 2.6443 113° Southeast 462 532 35,500  Descending FlightAware UK
06:14PM 50.8689 2.6810 113° Southeast 433 498 37,000  Climbing FlightAware ADS-B
06:15PM 50.8552 2.7312 113° Southeast 462 532 35,500  Descending FlightAware UK
06:15PM 50.8416 2.7761 113° Southeast 434 499 37,000 3,900 Climbing FlightAware ADS-B
06:15PM 50.8365 2.7966 111° Southeast 433 498 37,000 -3,480 Level FlightAware ADS-B
06:15PM 50.8208 2.8525 111° Southeast 464 534 35,500  Descending FlightAware UK
06:15PM 50.8172 2.8630 111° Southeast 434 499 37,000  Climbing FlightAware ADS-B
06:16PM 50.8012 2.9217 111° Southeast 464 534 35,500  Descending FlightAware UK
06:16PM 50.7923 2.9523 111° Southeast 432 497 37,000  Climbing FlightAware ADS-B
06:16PM 50.7768 3.0077 111° Southeast 464 534 35,500  Descending FlightAware UK
06:16PM 50.7668 3.0386 111° Southeast 433 498 37,000  Climbing FlightAware ADS-B
06:17PM 50.7516 3.0944 111° Southeast 460 529 35,500  Descending FlightAware UK
06:17PM 50.7418 3.1251 111° Southeast 433 498 37,000  Climbing FlightAware ADS-B
06:17PM 50.7264 3.1811 111° Southeast 460 529 35,500  Descending FlightAware UK
06:17PM 50.7163 3.2143 111° Southeast 435 501 37,000  Climbing FlightAware ADS-B
06:18PM 50.7014 3.2668 111° Southeast 458 527 35,500  Descending FlightAware UK
06:18PM 50.6907 3.3034 111° Southeast 435 501 37,000  Climbing FlightAware ADS-B
06:18PM 50.6759 3.3538 111° Southeast 458 527 35,500  Descending FlightAware UK
06:19PM 50.6642 3.3928 111° Southeast 437 503 37,000  Climbing FlightAware ADS-B
06:19PM 50.6504 3.4403 111° Southeast 458 527 35,500 -2,700 Descending FlightAware UK
06:19PM 50.6352 3.4924 115° Southeast 458 527 35,500 4,500 Level FlightAware UK
06:19PM 50.6339 3.4973 115° Southeast 439 505 37,000  Climbing FlightAware ADS-B
06:19PM 50.6199 3.5445 115° Southeast 460 529 35,500  Descending FlightAware UK
06:20PM 50.6082 3.5847 115° Southeast 440 506 37,000  Climbing FlightAware ADS-B
06:20PM 50.5946 3.6320 115° Southeast 460 529 35,500  Descending FlightAware UK
06:20PM 50.5827 3.6720 115° Southeast 442 509 37,000  Climbing FlightAware ADS-B
06:20PM 50.5691 3.7198 115° Southeast 464 534 35,500  Descending FlightAware UK
06:21PM 50.5562 3.7627 115° Southeast 443 510 37,000  Climbing FlightAware ADS-B
06:21PM 50.5435 3.8079 115° Southeast 464 534 35,500 -2,760 Descending FlightAware UK
06:21PM 50.5280 3.8606 115° Southeast 466 536 35,500 4,680 Level FlightAware UK
06:21PM 50.5272 3.8624 115° Southeast 446 513 37,000  Climbing FlightAware ADS-B
06:21PM 50.5123 3.9135 115° Southeast 466 536 35,500 -2,580 Descending FlightAware UK
06:22PM 50.4963 3.9658 116° Southeast 466 536 35,500 4,680 Level FlightAware UK
06:22PM 50.4960 3.9682 116° Southeast 448 516 37,000  Climbing FlightAware ADS-B
06:22PM 50.4805 4.0185 116° Southeast 466 536 35,500  Descending FlightAware UK
06:22PM 50.4656 4.0718 116° Southeast 449 517 37,000  Climbing FlightAware ADS-B
06:23PM 50.4484 4.1236 116° Southeast 468 539 35,500 -2,520 Descending FlightAware UK
06:23PM 50.4320 4.1756 116° Southeast 468 539 35,500 2,880 Level FlightAware UK
06:23PM 50.4260 4.2070 116° Southeast 449 517 37,000 3,180 Climbing FlightAware
06:23PM 50.4096 4.2607 116° Southeast 450 518 37,000 -2,580 Level FlightAware ADS-B
06:24PM 50.3902 4.3190 116° Southeast 1 1 35,500  Descending FlightAware UK
06:24PM 50.3826 4.3493 116° Southeast 450 518 37,000  Climbing FlightAware ADS-B
06:24PM 50.3636 4.4073 116° Southeast 1 1 35,500  Descending FlightAware UK
06:24PM 50.3550 4.4409 116° Southeast 451 519 37,000  Climbing FlightAware ADS-B
06:25PM 50.3379 4.4980 116° Southeast 1 1 35,500  Descending FlightAware UK
06:25PM 50.3267 4.5349 116° Southeast 450 518 37,000  Climbing FlightAware ADS-B
06:25PM 50.3116 4.5877 116° Southeast 1 1 35,500  Descending FlightAware UK
06:26PM 50.2980 4.6285 116° Southeast 449 517 37,000  Climbing FlightAware ADS-B
06:26PM 50.2844 4.6748 116° Southeast 1 1 35,500  Descending FlightAware UK
06:26PM 50.2707 4.7191 116° Southeast 448 516 37,000 1,920 Climbing FlightAware ADS-B
06:27PM 50.2436 4.8064 116° Southeast 447 514 37,000  Level FlightAware ADS-B
06:27PM 50.2159 4.8934 116° Southeast 447 514 37,000  Level FlightAware ADS-B
06:28PM 50.1882 4.9835 116° Southeast 447 514 37,000  Level FlightAware ADS-B
06:28PM 50.1610 5.0731 115° Southeast 446 513 37,000  Level FlightAware ADS-B
06:29PM 50.1319 5.1655 116° Southeast 445 512 37,000  Level FlightAware ADS-B
06:29PM 50.1042 5.2549 116° Southeast 445 512 37,000  Level FlightAware ADS-B
06:30PM 50.0770 5.3409 116° Southeast 444 511 37,000  Level FlightAware ADS-B
06:30PM 50.0484 5.4324 116° Southeast 443 510 37,000  Level FlightAware ADS-B
06:31PM 50.0170 5.5298 117° Southeast 442 509 37,000  Level FlightAware ADS-B
06:31PM 49.9874 5.6235 116° Southeast 443 510 37,000  Level FlightAware ADS-B
06:32PM 49.9601 5.7088 116° Southeast 442 509 37,000  Level FlightAware ADS-B
06:32PM 49.9286 5.8082 116° Southeast 442 509 37,000  Level FlightAware ADS-B
06:33PM 49.9003 5.8964 116° Southeast 443 510 37,000  Level FlightAware ADS-B
06:33PM 49.8710 5.9900 116° Southeast 442 509 37,000  Level FlightAware
06:34PM 49.8350 6.0980 117° Southeast 443 510 37,000  Level FlightAware
06:35PM 49.7930 6.2320 116° Southeast 444 511 37,000  Level FlightAware
06:36PM 49.7530 6.3570 116° Southeast 444 511 37,000  Level FlightAware
06:36PM 49.7160 6.4710 117° Southeast 446 513 37,000  Level FlightAware
06:37PM 49.6790 6.5850 117° Southeast 446 513 37,000  Level FlightAware
06:38PM 49.6360 6.7130 117° Southeast 448 516 37,000  Level FlightAware
06:38PM 49.6010 6.8210 117° Southeast 449 517 37,000  Level FlightAware
06:39PM 49.5729 6.9069 117° Southeast 451 519 37,000  Level FlightAware ADS-B
06:40PM 49.5020 7.0580 126° Southeast 452 520 37,000  Level FlightAware
06:40PM 49.4753 7.1076 130° Southeast 454 522 37,000  Level FlightAware ADS-B
06:41PM 49.4296 7.1884 131° Southeast 454 522 37,000  Level FlightAware ADS-B
06:42PM 49.3580 7.3150 131° Southeast 452 520 37,000  Level FlightAware
06:42PM 49.2970 7.4280 130° Southeast 448 516 37,000  Level FlightAware
06:43PM 49.2420 7.5250 131° Southeast 448 516 37,000  Level FlightAware
06:44PM 49.1890 7.6180 131° Southeast 452 520 37,000  Level FlightAware
06:44PM 49.1250 7.7340 130° Southeast 448 516 37,000  Level FlightAware
06:46PM 49.0080 7.9390 131° Southeast 448 516 37,000  Level FlightAware
06:47PM 48.9540 8.0340 131° Southeast 448 516 37,000  Level FlightAware
06:47PM 48.9010 8.1310 130° Southeast 453 521 37,000  Level FlightAware
06:48PM 48.8390 8.2400 131° Southeast 449 517 37,000  Level FlightAware
06:49PM 48.7850 8.3340 131° Southeast 449 517 37,000  Level FlightAware
06:49PM 48.7210 8.4470 131° Southeast 449 517 37,000  Level FlightAware
06:50PM 48.6650 8.5430 131° Southeast 449 517 37,000  Level FlightAware
06:51PM 48.6150 8.6310 131° Southeast 452 520 37,000  Level FlightAware
06:51PM 48.5760 8.6980 131° Southeast 453 521 37,000  Level FlightAware
06:52PM 48.5070 8.8170 131° Southeast 444 511 37,000  Level FlightAware
06:53PM 48.4530 8.9120 131° Southeast 449 517 37,000  Level FlightAware
06:53PM 48.4000 9.0040 131° Southeast 448 516 37,000  Level FlightAware
06:54PM 48.3330 9.1180 131° Southeast 447 514 37,000  Level FlightAware
06:55PM 48.2770 9.2140 131° Southeast 445 512 37,000  Level FlightAware
06:56PM 48.2220 9.3080 131° Southeast 445 512 37,000  Level FlightAware
06:56PM 48.1660 9.4030 131° Southeast 444 511 37,000  Level FlightAware
06:57PM 48.1120 9.4930 132° Southeast 443 510 37,000  Level FlightAware
06:58PM 48.0370 9.6180 132° Southeast 442 509 37,000  Level FlightAware
06:58PM 47.9900 9.6960 132° Southeast 441 507 37,000  Level FlightAware
06:59PM 47.9300 9.7950 132° Southeast 441 507 37,000  Level FlightAware
07:00PM 47.8620 9.9080 132° Southeast 442 509 37,000  Level FlightAware
07:01PM 47.8090 9.9940 133° Southeast 441 507 37,000  Level FlightAware
07:01PM 47.7630 10.0680 133° Southeast 442 509 37,000  Level FlightAware
07:02PM 47.7070 10.1610 132° Southeast 442 509 37,000  Level FlightAware
07:03PM 47.6410 10.2720 131° Southeast 442 509 37,000  Level FlightAware
07:03PM 47.5860 10.3600 133° Southeast 443 510 37,000  Level FlightAware
07:04PM 47.5310 10.4520 132° Southeast 443 510 37,000  Level FlightAware
07:05PM 47.4640 10.5600 133° Southeast 443 510 37,000  Level FlightAware
07:05PM 47.4090 10.6490 132° Southeast 442 509 37,000  Level FlightAware
07:06PM 47.3580 10.7310 133° Southeast 441 507 37,000  Level FlightAware
07:07PM 47.2910 10.8370 133° Southeast 440 506 37,000  Level FlightAware
07:07PM 47.2470 10.9080 132° Southeast 439 505 37,000  Level FlightAware
07:08PM 47.1760 11.0230 132° Southeast 435 501 37,000  Level FlightAware
07:09PM 47.1050 11.1360 133° Southeast 443 510 37,000  Level FlightAware
07:09PM 47.0620 11.2050 132° Southeast 445 512 37,000  Level FlightAware
07:10PM 47.0080 11.2890 133° Southeast 445 512 37,000  Level FlightAware
07:11PM 46.9490 11.3820 133° Southeast 447 514 37,000  Level FlightAware
07:12PM 46.8860 11.4790 134° Southeast 447 514 37,000  Level FlightAware
07:12PM 46.8500 11.5370 132° Southeast 449 517 37,000  Level FlightAware
07:13PM 46.8030 11.6100 133° Southeast 447 514 37,000  Level FlightAware
07:13PM 46.7320 11.7200 133° Southeast 449 517 37,000  Level FlightAware
07:14PM 46.6730 11.8110 133° Southeast 451 519 37,000  Level FlightAware
07:15PM 46.6080 11.9090 134° Southeast 445 512 37,000  Level FlightAware
07:15PM 46.5520 11.9950 133° Southeast 445 512 37,000  Level FlightAware
07:16PM 46.4860 12.0960 133° Southeast 452 520 37,000  Level FlightAware
07:17PM 46.4300 12.1820 133° Southeast 447 514 37,000  Level FlightAware
07:18PM 46.3710 12.2720 134° Southeast 448 516 37,000  Level FlightAware
07:18PM 46.3070 12.3680 134° Southeast 451 519 37,000  Level FlightAware
07:19PM 46.2500 12.4560 133° Southeast 446 513 37,000  Level FlightAware
07:20PM 46.1840 12.5560 134° Southeast 446 513 37,000  Level FlightAware
07:20PM 46.1270 12.6400 134° Southeast 447 514 37,000  Level FlightAware
07:21PM 46.0600 12.7370 135° Southeast 446 513 37,000  Level FlightAware
07:22PM 46.0020 12.8240 134° Southeast 445 512 37,000  Level FlightAware
07:22PM 45.9430 12.9120 134° Southeast 445 512 37,000  Level FlightAware
07:23PM 45.8780 13.0060 135° Southeast 444 511 37,000  Level FlightAware
07:24PM 45.8210 13.0920 134° Southeast 444 511 37,000  Level FlightAware
07:25PM 45.7540 13.1900 134° Southeast 444 511 37,000  Level FlightAware
07:25PM 45.6960 13.2730 135° Southeast 445 512 37,000  Level FlightAware
07:26PM 45.6370 13.3610 134° Southeast 445 512 37,000  Level FlightAware
07:27PM 45.5750 13.4570 133° Southeast 448 516 37,000  Level FlightAware
07:27PM 45.5220 13.5470 130° Southeast 454 522 37,000  Level FlightAware
07:28PM 45.4600 13.6530 130° Southeast 455 524 37,000  Level FlightAware
07:29PM 45.4060 13.7450 130° Southeast 451 519 37,000  Level FlightAware
07:29PM 45.3500 13.8390 130° Southeast 452 520 37,000  Level FlightAware
07:30PM 45.2910 13.9370 131° Southeast 451 519 37,000  Level FlightAware
07:31PM 45.2390 14.0240 130° Southeast 451 519 37,000  Level FlightAware
07:32PM 45.1800 14.1220 130° Southeast 456 525 37,000  Level FlightAware
07:32PM 45.1210 14.2230 130° Southeast 454 522 37,000  Level FlightAware
07:33PM 45.0850 14.2820 131° Southeast 454 522 37,000  Level FlightAware
07:33PM 45.0280 14.3770 130° Southeast 452 520 37,000  Level FlightAware
07:34PM 44.9710 14.4740 130° Southeast 451 519 37,000  Level FlightAware
07:35PM 44.9160 14.5630 131° Southeast 445 512 37,000  Level FlightAware
07:36PM 44.8530 14.6650 131° Southeast 444 511 37,000  Level FlightAware
07:36PM 44.8000 14.7510 131° Southeast 448 516 37,000  Level FlightAware
07:37PM 44.7390 14.8480 132° Southeast 447 514 37,000  Level FlightAware
07:38PM 44.6950 14.9230 130° Southeast 446 513 37,000  Level FlightAware
07:38PM 44.6340 15.0220 131° Southeast 445 512 37,000  Level FlightAware
07:39PM 44.5840 15.1040 131° Southeast 445 512 37,000  Level FlightAware
07:40PM 44.5270 15.1950 131° Southeast 444 511 37,000  Level FlightAware
07:42PM 44.3824 15.4246 131° Southeast  Level Estimated
07:43PM 44.3054 15.5460 132° Southeast  Level Estimated
07:44PM 44.2283 15.6671 132° Southeast  Level Estimated
07:45PM 44.1511 15.7879 132° Southeast  Level Estimated
07:46PM 44.0737 15.9084 132° Southeast  Level Estimated
07:47PM 43.9962 16.0286 132° Southeast  Level Estimated
07:48PM 43.9186 16.1485 132° Southeast  Level Estimated
07:49PM 43.8409 16.2680 132° Southeast  Level Estimated
07:50PM 43.7630 16.3873 132° Southeast  Level Estimated
07:51PM 43.6850 16.5062 132° Southeast  Level Estimated
07:52PM 43.6069 16.6248 132° Southeast  Level Estimated
07:53PM 43.5287 16.7431 132° Southeast  Level Estimated
07:54PM 43.4503 16.8611 132° Southeast  Level Estimated
07:55PM 43.3718 16.9788 133° Southeast  Level Estimated
07:56PM 43.2933 17.0962 133° Southeast  Level Estimated
07:57PM 43.2145 17.2133 133° Southeast  Level Estimated
07:58PM 43.1357 17.3301 133° Southeast  Level Estimated
07:59PM 43.0568 17.4466 133° Southeast  Level Estimated
08:00PM 42.9777 17.5628 133° Southeast  Level Estimated
08:01PM 42.8985 17.6787 133° Southeast  Level Estimated
08:02PM 42.8192 17.7943 133° Southeast  Level Estimated
08:02PM 42.5880 18.0510 133° Southeast 460 529 37,000  Level FlightAware
08:03PM 42.5310 18.1380 132° Southeast 460 529 37,000  Level FlightAware
08:04PM 42.4700 18.2340 131° Southeast 460 529 37,000  Level FlightAware
08:04PM 42.4160 18.3200 130° Southeast 460 529 37,000  Level FlightAware
08:05PM 42.3630 18.4030 131° Southeast 461 531 37,000  Level FlightAware
08:06PM 42.2950 18.5090 131° Southeast 462 532 37,000  Level FlightAware
08:07PM 42.2390 18.5970 131° Southeast 462 532 37,000  Level FlightAware
08:07PM 42.1840 18.6840 130° Southeast 462 532 37,000  Level FlightAware
08:08PM 42.1190 18.7850 131° Southeast 463 533 37,000  Level FlightAware
08:09PM 42.0630 18.8730 131° Southeast 463 533 37,000  Level FlightAware
08:09PM 42.0010 18.9690 131° Southeast 465 535 37,000  Level FlightAware
08:10PM 41.9460 19.0560 130° Southeast 465 535 37,000  Level FlightAware
08:11PM 41.8890 19.1430 131° Southeast 465 535 37,000  Level FlightAware
08:11PM 41.8220 19.2450 131° Southeast 465 535 37,000  Level FlightAware
08:12PM 41.7640 19.3280 133° Southeast 462 532 37,000  Level FlightAware
08:13PM 41.6970 19.4140 136° Southeast 461 531 37,000  Level FlightAware
08:14PM 41.6350 19.4930 136° Southeast 461 531 37,000  Level FlightAware
08:14PM 41.5840 19.5610 135° Southeast 463 533 37,000  Level FlightAware
08:15PM 41.5020 19.6640 137° Southeast 465 535 37,000  Level FlightAware
08:16PM 41.4400 19.7430 136° Southeast 466 536 37,000  Level FlightAware
08:16PM 41.3720 19.8300 136° Southeast 466 536 37,000  Level FlightAware
08:17PM 41.3150 19.9010 137° Southeast 468 539 37,000  Level FlightAware
08:18PM 41.2460 19.9880 137° Southeast 471 542 37,000  Level FlightAware
08:18PM 41.1720 20.0790 137° Southeast 472 543 37,000  Level FlightAware
08:19PM 41.1100 20.1570 137° Southeast 474 545 37,000  Level FlightAware
08:20PM 41.0400 20.2440 137° Southeast 474 545 37,000  Level FlightAware
08:21PM 40.9750 20.3230 137° Southeast 474 545 37,000  Level FlightAware
08:21PM 40.9010 20.4140 137° Southeast 476 548 37,000  Level FlightAware
08:22PM 40.8280 20.5040 137° Southeast 478 550 37,000  Level FlightAware
08:23PM 40.7640 20.5830 137° Southeast 479 551 37,000  Level FlightAware
08:23PM 40.6980 20.6650 137° Southeast 480 552 37,000  Level FlightAware
08:24PM 40.6280 20.7510 137° Southeast 481 554 37,000  Level FlightAware
08:25PM 40.6260 20.7530 143° Southeast 481 554 37,000  Level FlightAware
08:25PM 40.5480 20.8480 137° Southeast 481 554 37,000  Level FlightAware
08:26PM 40.4750 20.9350 138° Southeast 481 554 37,000  Level FlightAware
08:27PM 40.4150 21.0080 137° Southeast 480 552 37,000  Level FlightAware
08:28PM 40.3340 21.0950 141° Southeast 478 550 37,000  Level FlightAware
08:28PM 40.2160 21.2230 140° Southeast 479 551 37,000  Level FlightAware
08:29PM 40.1410 21.3070 139° Southeast 479 551 37,000  Level FlightAware
08:30PM 40.0560 21.3990 140° Southeast 479 551 37,000  Level FlightAware
08:31PM 39.9680 21.4930 141° Southeast 480 552 37,000  Level FlightAware
08:31PM 39.8930 21.5740 140° Southeast 481 554 37,000  Level FlightAware
08:32PM 39.8230 21.6500 140° Southeast 480 552 37,000  Level FlightAware
08:33PM 39.7530 21.7230 141° Southeast 478 550 37,000  Level FlightAware
08:33PM 39.6790 21.8030 140° Southeast 478 550 37,000  Level FlightAware
08:34PM 39.6100 21.8760 141° Southeast 476 548 37,000  Level FlightAware
08:35PM 39.5420 21.9480 141° Southeast 476 548 37,000  Level FlightAware
08:36PM 39.4640 22.0310 141° Southeast 476 548 37,000  Level FlightAware
08:36PM 39.3950 22.1030 141° Southeast 476 548 37,000  Level FlightAware
08:37PM 39.3270 22.1750 141° Southeast 475 547 37,000  Level FlightAware
08:38PM 39.2530 22.2520 141° Southeast 475 547 37,000  Level FlightAware
08:38PM 39.1850 22.3240 141° Southeast 476 548 37,000  Level FlightAware
08:39PM 39.1060 22.4080 140° Southeast 479 551 37,000  Level FlightAware
08:40PM 39.0350 22.4800 142° Southeast 479 551 37,000  Level FlightAware
08:40PM 38.9610 22.5590 140° Southeast 481 554 37,000  Level FlightAware
08:41PM 38.8920 22.6310 141° Southeast 481 554 37,000  Level FlightAware
08:42PM 38.8220 22.7030 141° Southeast 481 554 37,000  Level FlightAware
08:43PM 38.7430 22.7840 141° Southeast 481 554 37,000  Level FlightAware
08:43PM 38.6740 22.8570 140° Southeast 479 551 37,000  Level FlightAware
08:44PM 38.5980 22.9350 141° Southeast 478 550 37,000  Level FlightAware
08:45PM 38.5290 23.0050 142° Southeast 478 550 37,000  Level FlightAware
08:45PM 38.4590 23.0760 142° Southeast 478 550 37,000  Level FlightAware
08:46PM 38.3790 23.1570 142° Southeast 477 549 37,000  Level FlightAware
08:47PM 38.3110 23.2260 141° Southeast 476 548 37,000  Level FlightAware
08:47PM 38.2420 23.2970 141° Southeast 475 547 37,000  Level FlightAware
08:48PM 38.1660 23.3740 141° Southeast 476 548 37,000  Level FlightAware
08:49PM 38.0970 23.4430 142° Southeast 475 547 37,000  Level FlightAware
08:50PM 38.0170 23.5240 141° Southeast 475 547 37,000  Level FlightAware
08:50PM 37.9490 23.5920 142° Southeast 474 545 37,000  Level FlightAware
08:51PM 37.8810 23.6590 142° Southeast 474 545 37,000  Level FlightAware
08:51PM 37.8270 23.7120 142° Southeast 474 545 37,000  Level FlightAware
08:52PM 37.7530 23.7860 142° Southeast 475 547 37,000  Level FlightAware
08:53PM 37.6830 23.8560 142° Southeast 475 547 37,000  Level FlightAware
08:53PM 37.6140 23.9250 142° Southeast 475 547 37,000  Level FlightAware
08:54PM 37.5450 23.9910 143° Southeast 476 548 37,000  Level FlightAware
08:55PM 37.4630 24.0720 142° Southeast 476 548 37,000  Level FlightAware
08:56PM 37.3940 24.1400 142° Southeast 477 549 37,000  Level FlightAware
08:56PM 37.3200 24.2130 142° Southeast 477 549 37,000  Level FlightAware
08:57PM 37.2480 24.2830 142° Southeast 478 550 37,000  Level FlightAware
08:58PM 37.1780 24.3510 142° Southeast 479 551 37,000  Level FlightAware
08:58PM 37.0970 24.4290 142° Southeast 479 551 37,000  Level FlightAware
08:59PM 37.0260 24.4970 143° Southeast 479 551 37,000  Level FlightAware
09:00PM 36.9500 24.5720 142° Southeast 480 552 37,000  Level FlightAware
09:00PM 36.8800 24.6400 142° Southeast 481 554 37,000  Level FlightAware
09:01PM 36.8090 24.7070 143° Southeast 480 552 37,000  Level FlightAware
09:02PM 36.7280 24.7850 142° Southeast 481 554 37,000  Level FlightAware
09:03PM 36.6560 24.8540 142° Southeast 482 555 37,000  Level FlightAware
09:03PM 36.5810 24.9250 143° Southeast 482 555 37,000  Level FlightAware
09:04PM 36.5070 24.9950 143° Southeast 482 555 37,000  Level FlightAware
09:05PM 36.4380 25.0600 143° Southeast 483 556 37,000  Level FlightAware
09:05PM 36.3560 25.1380 143° Southeast 484 557 37,000  Level FlightAware
09:06PM 36.2850 25.2060 142° Southeast 485 558 37,000  Level FlightAware
09:07PM 36.2130 25.2750 142° Southeast 486 559 37,000  Level FlightAware
09:07PM 36.1440 25.3390 143° Southeast 486 559 37,000  Level FlightAware
09:08PM 36.0720 25.4090 142° Southeast 486 559 37,000  Level FlightAware
09:09PM 36.0120 25.4670 142° Southeast 486 559 37,000  Level FlightAware
09:09PM 35.9510 25.5260 142° Southeast 486 559 37,000  Level FlightAware
09:10PM 35.8910 25.5840 142° Southeast 486 559 37,000  Level FlightAware
09:11PM 35.8160 25.6560 142° Southeast 486 559 37,000  Level FlightAware
09:12PM 35.7560 25.7140 142° Southeast 486 559 37,000  Level FlightAware
09:12PM 35.6950 25.7720 142° Southeast 486 559 37,000  Level FlightAware
09:13PM 35.6350 25.8300 142° Southeast 486 559 37,000  Level FlightAware
09:14PM 35.5600 25.9030 142° Southeast 486 559 37,000  Level FlightAware
09:14PM 35.5000 25.9600 142° Southeast 486 559 37,000  Level FlightAware
09:15PM 35.4390 26.0180 142° Southeast 486 559 37,000  Level FlightAware
09:16PM 35.3790 26.0760 142° Southeast 486 559 37,000  Level FlightAware
09:16PM 35.3190 26.1340 142° Southeast 486 559 37,000  Level FlightAware
09:17PM 35.2590 26.1910 142° Southeast 486 559 37,000 60 Level FlightAware
09:20PM 35.0575 26.4228 137° Southeast  Level Estimated
09:21PM 34.9729 26.5197 137° Southeast  Level Estimated
09:22PM 34.8881 26.6164 137° Southeast  Level Estimated
09:23PM 34.8033 26.7130 137° Southeast  Level Estimated
09:24PM 34.7184 26.8093 137° Southeast  Level Estimated
09:25PM 34.6335 26.9054 137° Southeast  Level Estimated
09:26PM 34.5484 27.0014 137° Southeast  Level Estimated
09:27PM 34.4633 27.0971 137° Southeast  Level Estimated
09:28PM 34.3781 27.1926 137° Southeast  Level Estimated
09:29PM 34.2929 27.2880 137° Southeast  Level Estimated
09:30PM 34.2075 27.3831 137° Southeast  Level Estimated
09:31PM 34.1221 27.4781 137° Southeast  Level Estimated
09:32PM 34.0366 27.5728 137° Southeast  Level Estimated
09:33PM 33.9511 27.6674 137° Southeast  Level Estimated
09:34PM 33.8654 27.7618 138° Southeast  Level Estimated
09:35PM 33.7797 27.8560 138° Southeast  Level Estimated
09:36PM 33.6940 27.9500 138° Southeast  Level Estimated
09:37PM 33.6081 28.0438 138° Southeast  Level Estimated
09:37PM 32.8890 28.3410 138° Southeast 468 539 39,000  Level FlightAware
09:38PM 32.8080 28.3500 175° South 466 536 39,000  Level FlightAware
09:38PM 32.7350 28.3570 175° South 466 536 39,000  Level FlightAware
09:39PM 32.6430 28.3670 175° South 466 536 39,000  Level FlightAware
09:40PM 32.5700 28.3740 175° South 466 536 39,000  Level FlightAware
09:41PM 32.4970 28.3820 175° South 466 536 39,000  Level FlightAware
09:41PM 32.4240 28.3890 175° South 466 536 39,000  Level FlightAware
09:42PM 32.3510 28.3970 175° South 466 536 39,000  Level FlightAware
09:43PM 32.2600 28.4060 175° South 466 536 39,000  Level FlightAware
09:43PM 32.1870 28.4140 175° South 466 536 39,000  Level FlightAware
09:44PM 32.1140 28.4220 175° South 466 536 39,000  Level FlightAware
09:45PM 32.0410 28.4290 175° South 466 536 39,000  Level FlightAware
09:45PM 31.9680 28.4370 175° South 466 536 39,000  Level FlightAware
09:46PM 31.8770 28.4460 175° South 466 536 39,000  Level FlightAware
09:47PM 31.8040 28.4540 175° South 466 536 39,000 -360 Level FlightAware
09:49PM 31.6720 28.6139 134° Southeast  Level Estimated
09:50PM 31.5910 28.7116 134° Southeast  Level Estimated
09:51PM 31.5100 28.8091 134° Southeast  Level Estimated
09:52PM 31.4289 28.9065 134° Southeast  Level Estimated
09:53PM 31.3478 29.0037 134° Southeast  Level Estimated
09:54PM 31.2666 29.1007 134° Southeast  Level Estimated
09:55PM 31.1853 29.1975 134° Southeast  Level Estimated
09:56PM 31.1039 29.2942 134° Southeast  Level Estimated
09:57PM 31.0225 29.3908 135° Southeast  Level Estimated
09:58PM 30.9410 29.4871 135° Southeast  Level Estimated
09:59PM 30.8594 29.5833 135° Southeast  Level Estimated
10:00PM 30.7777 29.6793 135° Southeast  Level Estimated
10:01PM 30.6960 29.7752 135° Southeast  Level Estimated
10:02PM 30.6142 29.8709 135° Southeast  Level Estimated
10:03PM 30.5323 29.9664 135° Southeast  Level Estimated
10:04PM 30.4504 30.0618 135° Southeast  Level Estimated
10:05PM 30.3683 30.1570 135° Southeast  Level Estimated
10:06PM 30.2863 30.2521 135° Southeast  Level Estimated
10:07PM 30.2041 30.3470 135° Southeast  Level Estimated
10:08PM 30.1219 30.4417 135° Southeast  Level Estimated
10:09PM 30.0396 30.5363 135° Southeast  Level Estimated
10:10PM 29.9573 30.6307 135° Southeast  Level Estimated
10:11PM 29.8749 30.7250 135° Southeast  Level Estimated
10:12PM 29.7924 30.8191 135° Southeast  Level Estimated
10:13PM 29.7099 30.9131 135° Southeast  Level Estimated
10:14PM 29.6272 31.0069 135° Southeast  Level Estimated
10:15PM 29.5446 31.1005 135° Southeast  Level Estimated
10:16PM 29.4618 31.1940 135° Southeast  Level Estimated
10:17PM 29.3790 31.2874 136° Southeast  Level Estimated
10:18PM 29.2961 31.3806 136° Southeast  Level Estimated
10:19PM 29.2132 31.4736 136° Southeast  Level Estimated
10:20PM 29.1302 31.5665 136° Southeast  Level Estimated
10:21PM 29.0471 31.6592 136° Southeast  Level Estimated
10:22PM 28.9640 31.7518 136° Southeast  Level Estimated
10:23PM 28.8808 31.8443 136° Southeast  Level Estimated
10:24PM 28.7975 31.9366 136° Southeast  Level Estimated
10:25PM 28.7142 32.0287 136° Southeast  Level Estimated
10:26PM 28.6308 32.1207 136° Southeast  Level Estimated
10:27PM 28.5474 32.2126 136° Southeast  Level Estimated
10:28PM 28.4639 32.3043 136° Southeast  Level Estimated
10:29PM 28.3803 32.3959 136° Southeast  Level Estimated
10:30PM 28.2967 32.4873 136° Southeast  Level Estimated
10:31PM 28.2130 32.5785 136° Southeast  Level Estimated
10:32PM 28.1292 32.6697 136° Southeast  Level Estimated
10:33PM 28.0454 32.7607 136° Southeast  Level Estimated
10:34PM 27.9615 32.8515 136° Southeast  Level Estimated
10:35PM 27.8776 32.9422 136° Southeast  Level Estimated
10:36PM 27.7936 33.0328 136° Southeast  Level Estimated
10:37PM 27.7096 33.1232 136° Southeast  Level Estimated
10:38PM 27.6255 33.2135 136° Southeast  Level Estimated
10:39PM 27.5413 33.3037 136° Southeast  Level Estimated
10:40PM 27.4571 33.3937 137° Southeast  Level Estimated
10:41PM 27.3728 33.4836 137° Southeast  Level Estimated
10:42PM 27.2885 33.5733 137° Southeast  Level Estimated
10:43PM 27.2041 33.6629 137° Southeast  Level Estimated
10:44PM 27.1196 33.7524 137° Southeast  Level Estimated
10:45PM 27.0351 33.8417 137° Southeast  Level Estimated
10:46PM 26.9505 33.9309 137° Southeast  Level Estimated
10:47PM 26.8659 34.0200 137° Southeast  Level Estimated
10:48PM 26.7812 34.1089 137° Southeast  Level Estimated
10:49PM 26.6965 34.1977 137° Southeast  Level Estimated
10:50PM 26.6117 34.2864 137° Southeast  Level Estimated
10:51PM 26.5269 34.3749 137° Southeast  Level Estimated
10:52PM 26.4420 34.4633 137° Southeast  Level Estimated
10:53PM 26.3570 34.5516 137° Southeast  Level Estimated
10:54PM 26.2720 34.6397 137° Southeast  Level Estimated
10:55PM 26.1869 34.7277 137° Southeast  Level Estimated
10:56PM 26.1018 34.8156 137° Southeast  Level Estimated
10:57PM 26.0167 34.9034 137° Southeast  Level Estimated
10:58PM 25.9314 34.9910 137° Southeast  Level Estimated
10:59PM 25.8462 35.0785 137° Southeast  Level Estimated
11:00PM 25.7609 35.1659 137° Southeast  Level Estimated
11:01PM 25.6755 35.2531 137° Southeast  Level Estimated
11:02PM 25.5900 35.3402 137° Southeast  Level Estimated
11:03PM 25.5046 35.4272 137° Southeast  Level Estimated
11:04PM 25.4190 35.5141 137° Southeast  Level Estimated
11:05PM 25.3335 35.6009 137° Southeast  Level Estimated
11:06PM 25.2478 35.6875 138° Southeast  Level Estimated
11:07PM 25.1621 35.7740 138° Southeast  Level Estimated
11:08PM 25.0764 35.8604 138° Southeast  Level Estimated
11:09PM 24.9906 35.9467 138° Southeast  Level Estimated
11:10PM 24.9048 36.0328 138° Southeast  Level Estimated
11:11PM 24.8189 36.1189 138° Southeast  Level Estimated
11:12PM 24.7330 36.2048 138° Southeast  Level Estimated
11:13PM 24.6470 36.2906 138° Southeast  Level Estimated
11:14PM 24.5610 36.3762 138° Southeast  Level Estimated
11:15PM 24.4749 36.4618 138° Southeast  Level Estimated
11:16PM 24.3888 36.5472 138° Southeast  Level Estimated
11:17PM 24.3026 36.6325 138° Southeast  Level Estimated
11:18PM 24.2164 36.7178 138° Southeast  Level Estimated
11:19PM 24.1301 36.8028 138° Southeast  Level Estimated
11:20PM 24.0438 36.8878 138° Southeast  Level Estimated
11:21PM 23.9574 36.9727 138° Southeast  Level Estimated
11:22PM 23.8710 37.0574 138° Southeast  Level Estimated
11:23PM 23.7846 37.1421 138° Southeast  Level Estimated
11:24PM 23.6981 37.2266 138° Southeast  Level Estimated
11:25PM 23.6115 37.3110 138° Southeast  Level Estimated
11:26PM 23.5249 37.3953 138° Southeast  Level Estimated
11:27PM 23.4383 37.4795 138° Southeast  Level Estimated
11:28PM 23.3516 37.5636 138° Southeast  Level Estimated
11:29PM 23.2649 37.6475 138° Southeast  Level Estimated
11:30PM 23.1781 37.7314 138° Southeast  Level Estimated
11:30PM 21.4730 39.0940 138° Southeast 226 260 4,000  Level FlightAware
11:31PM 23.0913 37.8152 138° Southeast  Level Estimated
11:31PM 21.4460 39.1170 142° Southeast 222 255 3,800  Level FlightAware
11:32PM 21.4660 39.1680 67° East 203 234 3,000 -540 Descending FlightAware
11:32PM 21.4840 39.1810 34° Northeast 203 234 3,000 -300 Level FlightAware
11:33PM 21.5170 39.2130 42° Northeast 199 229 2,700 -300 Descending FlightAware
11:33PM 21.5330 39.2290 43° Northeast 200 230 2,700 -180 Level FlightAware
11:34PM 21.5460 39.2350 23° Northeast 204 235 2,600 -720 Descending FlightAware
11:34PM 21.5710 39.2190 329° Northwest 190 219 2,100 -1,020 Descending FlightAware
11:35PM 21.5910 39.2100 337° Northwest 178 205 1,700 -900 Descending FlightAware
11:35PM 21.6020 39.2060 341° North 172 198 1,500 -900 Descending FlightAware
11:35PM 21.6200 39.1990 340° North 152 175 1,100 -840 Descending FlightAware
11:36PM 21.6370 39.1920 339° North 144 166 800 -600 Descending FlightAware
11:36PM 21.6500 39.1870 340° North 144 166 600 -240 Descending FlightAware
11:37PM 21.6640 39.1820 342° North 144 166 600  Level FlightAware
11:39PM 21.6796 39.1565 303° West  Level Estimated
11:40PM 21.6796 39.1565 317° Northwest  Level Estimated
11:41PM 21.6796 39.1565 317° Northwest  Level Estimated
11:42PM 21.6796 39.1565 317° Northwest  Level Estimated
11:43PM 21.6796 39.1565 317° Northwest  Level Estimated
11:44PM 21.6796 39.1565 317° Northwest  Level Estimated
11:45PM 21.6796 39.1565 317° Northwest  Level Estimated
11:46PM 21.6796 39.1565 317° Northwest  Level Estimated
11:47PM 21.6796 39.1565 317° Northwest  Level Estimated
11:48PM 21.6796 39.1565 317° Northwest  Level Estimated
11:49PM 21.6796 39.1565 317° Northwest  Level Estimated
11:50PM 21.6796 39.1565 317° Northwest  Level Estimated
11:51PM 21.6796 39.1565 317° Northwest  Level Estimated
11:52PM 21.6796 39.1565 317° Northwest  Level Estimated